createdAt,value
2023-04-18T00:00:02.924Z,0.112
2023-04-18T00:05:03.150Z,0.035
2023-04-18T00:10:03.029Z,0
2023-04-18T00:15:02.955Z,0
2023-04-18T00:20:02.953Z,0
2023-04-18T00:25:02.859Z,0
2023-04-18T00:30:02.983Z,0.073
2023-04-18T00:35:02.912Z,0.112
2023-04-18T00:40:02.876Z,0.112
2023-04-18T00:45:02.892Z,0.112
2023-04-18T00:50:02.938Z,0.129
2023-04-18T00:55:02.861Z,0.164
2023-04-18T01:00:02.909Z,0.04
2023-04-18T01:05:02.909Z,0.091
2023-04-18T01:10:02.914Z,0.124
2023-04-18T01:15:02.912Z,0.125
2023-04-18T01:20:02.867Z,0.082
2023-04-18T01:25:02.899Z,0
2023-04-18T01:30:02.876Z,0
2023-04-18T01:35:03.048Z,0
2023-04-18T01:40:02.994Z,0
2023-04-18T01:45:02.948Z,0
2023-04-18T01:50:02.881Z,0.053
2023-04-18T01:55:02.905Z,0.107
2023-04-18T02:00:02.892Z,0.107
2023-04-18T02:05:03.130Z,0.109
2023-04-18T02:10:03.071Z,0.111
2023-04-18T02:15:03.109Z,0.121
2023-04-18T02:20:03.108Z,0.124
2023-04-18T02:25:03.116Z,0.169
2023-04-18T02:30:03.018Z,0.17300000000000001
2023-04-18T02:35:03.026Z,0.171
2023-04-18T02:40:03.009Z,0.108
2023-04-18T02:45:03.013Z,0.012
2023-04-18T02:50:03.045Z,0.002
2023-04-18T02:55:03.002Z,0
2023-04-18T03:00:02.978Z,0
2023-04-18T03:05:03.108Z,0
2023-04-18T03:10:03.041Z,0.1
2023-04-18T03:15:02.994Z,0.157
2023-04-18T03:20:03.007Z,0.154
2023-04-18T03:25:03.087Z,0.123
2023-04-18T03:30:02.935Z,0.10400000000000001
2023-04-18T03:35:03.053Z,0.106
2023-04-18T03:40:03.058Z,0.123
2023-04-18T03:45:03.000Z,0.125
2023-04-18T03:50:03.099Z,0.116
2023-04-18T03:55:03.013Z,0.129
2023-04-18T04:00:03.072Z,0.065
2023-04-18T04:05:03.058Z,0
2023-04-18T04:10:02.997Z,0
2023-04-18T04:15:03.182Z,22.928
2023-04-18T04:20:03.164Z,38.784
2023-04-18T04:25:03.237Z,39.756
2023-04-18T04:30:03.195Z,57.794000000000004
2023-04-18T04:35:01.401Z,65.71600000000001
2023-04-18T04:40:01.441Z,99.777
2023-04-18T04:45:01.424Z,122.146
2023-04-18T04:50:01.376Z,144.37800000000001
2023-04-18T04:55:01.374Z,164.858
2023-04-18T05:00:01.449Z,185.553
2023-04-18T05:05:01.431Z,210.399
2023-04-18T05:10:01.443Z,230.901
2023-04-18T05:15:01.423Z,252.058
2023-04-18T05:20:01.387Z,265.26300000000003
2023-04-18T05:25:01.626Z,280.523
2023-04-18T05:30:01.595Z,301.568
2023-04-18T05:35:01.513Z,348.60200000000003
2023-04-18T05:40:01.562Z,388.322
2023-04-18T05:45:01.512Z,446.279
2023-04-18T05:50:01.578Z,523.591
2023-04-18T05:55:01.397Z,616.2520000000001
2023-04-18T06:00:01.795Z,723.832
2023-04-18T06:05:01.667Z,845.986
2023-04-18T06:10:01.415Z,986.381
2023-04-18T06:15:01.442Z,1132.924
2023-04-18T06:20:01.446Z,1294.863
2023-04-18T06:25:01.485Z,1461.135
2023-04-18T06:30:01.570Z,1646.933
2023-04-18T06:35:01.497Z,1863.974
2023-04-18T06:40:01.516Z,2053.8360000000002
2023-04-18T06:45:01.470Z,2252.826
2023-04-18T06:50:01.494Z,2425.727
2023-04-18T06:55:01.489Z,2574.933
2023-04-18T07:00:01.508Z,2752.6420000000003
2023-04-18T07:05:01.572Z,2961.626
2023-04-18T07:10:01.474Z,3174.823
2023-04-18T07:15:01.480Z,3369.355
2023-04-18T07:20:01.703Z,3550.53
2023-04-18T07:25:01.516Z,3724.535
2023-04-18T07:30:01.484Z,3871.17
2023-04-18T07:35:01.476Z,4054.034
2023-04-18T07:40:02.390Z,4235.9130000000005
2023-04-18T07:45:01.712Z,4395.354
2023-04-18T07:50:01.707Z,4574.368
2023-04-18T07:55:01.657Z,4724.146
2023-04-18T08:00:01.670Z,4875.746
2023-04-18T08:05:01.814Z,5037.139
2023-04-18T08:10:01.654Z,5173.9130000000005
2023-04-18T08:15:01.694Z,5314.143
2023-04-18T08:20:01.638Z,5454.235
2023-04-18T08:25:05.277Z,5592.8330000000005
2023-04-18T08:30:01.680Z,5747.425
2023-04-18T08:35:01.637Z,5862.525000000001
2023-04-18T08:40:01.601Z,5918.1900000000005
2023-04-18T08:45:01.621Z,6093.492
2023-04-18T08:50:01.561Z,6190.703
2023-04-18T08:55:01.626Z,6262.51
2023-04-18T09:00:01.641Z,6398.6630000000005
2023-04-18T09:05:01.632Z,6516.4130000000005
2023-04-18T09:10:01.627Z,6548.361
2023-04-18T09:15:01.533Z,6614.512
2023-04-18T09:20:01.699Z,6741.402
2023-04-18T09:25:01.637Z,6938.7080000000005
2023-04-18T09:30:01.741Z,6994.7880000000005
2023-04-18T09:35:03.513Z,7095.178
2023-04-18T09:40:01.640Z,7192.942
2023-04-18T09:45:01.650Z,7279.953
2023-04-18T09:50:01.705Z,7261.986
2023-04-18T09:55:01.642Z,7082.832
2023-04-18T10:00:01.579Z,7272.879
2023-04-18T10:05:01.823Z,7578.909000000001
2023-04-18T10:10:01.684Z,7461.95
2023-04-18T10:15:01.675Z,7627.046
2023-04-18T10:20:01.624Z,7397.709
2023-04-18T10:25:01.782Z,7793.071
2023-04-18T10:30:01.620Z,7846.291
2023-04-18T10:35:01.663Z,7866.455
2023-04-18T10:40:01.662Z,7944.326
2023-04-18T10:45:01.735Z,7921.2390000000005
2023-04-18T10:50:01.701Z,7887.915
2023-04-18T10:55:01.707Z,7897.229
2023-04-18T11:00:01.650Z,7893.251
2023-04-18T11:05:01.800Z,7929.9220000000005
2023-04-18T11:10:01.772Z,7962.124
2023-04-18T11:15:01.676Z,8032.281
2023-04-18T11:20:01.713Z,8087.167
2023-04-18T11:25:01.712Z,8048.351000000001
2023-04-18T11:30:01.626Z,8051.283
2023-04-18T11:35:01.731Z,8026.83
2023-04-18T11:40:01.707Z,8034.41
2023-04-18T11:45:01.905Z,7993.368
2023-04-18T11:50:01.730Z,7916.361
2023-04-18T11:55:01.734Z,7994.6140000000005
2023-04-18T12:00:01.737Z,7908.401
2023-04-18T12:05:02.077Z,7901.01
2023-04-18T12:10:01.766Z,7899.319
2023-04-18T12:15:01.781Z,7896.87
2023-04-18T12:20:01.804Z,7870.553
2023-04-18T12:25:01.840Z,7808.691
2023-04-18T12:30:01.786Z,7765.68
2023-04-18T12:35:01.901Z,7670.18
2023-04-18T12:40:01.750Z,7662.032
2023-04-18T12:45:01.741Z,7697.767
2023-04-18T12:50:01.767Z,7671.3730000000005
2023-04-18T12:55:01.846Z,7586.1810000000005
2023-04-18T13:00:01.828Z,7546.902
2023-04-18T13:05:01.836Z,7514.1810000000005
2023-04-18T13:10:01.853Z,7424.568
2023-04-18T13:15:01.829Z,7386.944
2023-04-18T13:20:01.965Z,7322.839
2023-04-18T13:25:01.893Z,7152.763
2023-04-18T13:30:01.910Z,7146.63
2023-04-18T13:35:01.907Z,7076.6050000000005
2023-04-18T13:40:01.988Z,6932.792
2023-04-18T13:45:02.156Z,6778.099
2023-04-18T13:50:02.056Z,6658.139
2023-04-18T13:55:02.029Z,6421.5
2023-04-18T14:00:01.957Z,6244.268
2023-04-18T14:05:02.175Z,6292.1050000000005
2023-04-18T14:10:02.159Z,6246.646
2023-04-18T14:15:01.999Z,6004.92
2023-04-18T14:20:02.001Z,6009.716
2023-04-18T14:25:01.979Z,5885.609
2023-04-18T14:30:02.001Z,5813.91
2023-04-18T14:35:01.993Z,5871.2
2023-04-18T14:40:02.069Z,5813.904
2023-04-18T14:45:02.065Z,5503.267
2023-04-18T14:50:02.077Z,5312.023
2023-04-18T14:55:02.065Z,5147.924
2023-04-18T15:00:02.030Z,4725.426
2023-04-18T15:05:02.130Z,4830.001
2023-04-18T15:10:02.140Z,4683.937
2023-04-18T15:15:01.838Z,4605.900000000001
2023-04-18T15:20:01.946Z,4636.289
2023-04-18T15:25:02.028Z,4248.647
2023-04-18T15:30:02.139Z,2658.53
2023-04-18T15:35:02.093Z,3456.288
2023-04-18T15:40:01.971Z,1278.404
2023-04-18T15:45:02.135Z,1081.203
2023-04-18T15:50:02.062Z,1432.662
2023-04-18T15:55:02.066Z,2178.497
2023-04-18T16:00:02.074Z,2499.983
2023-04-18T16:05:02.179Z,2223.515
2023-04-18T16:10:02.307Z,2467.619
2023-04-18T16:15:02.149Z,2511.738
2023-04-18T16:20:02.125Z,2414.687
2023-04-18T16:25:02.493Z,2198.681
2023-04-18T16:30:02.310Z,2000.0130000000001
2023-04-18T16:35:02.090Z,1719.768
2023-04-18T16:40:02.352Z,1358.903
2023-04-18T16:45:02.051Z,1192.502
2023-04-18T16:50:02.102Z,1022.081
2023-04-18T16:55:02.097Z,1034.926
2023-04-18T17:00:02.100Z,901.939
2023-04-18T17:05:02.084Z,769.756
2023-04-18T17:10:01.954Z,613.378
2023-04-18T17:15:02.033Z,415.494
2023-04-18T17:20:02.009Z,418.837
2023-04-18T17:25:02.023Z,348.254
2023-04-18T17:30:02.039Z,285.957
2023-04-18T17:35:02.011Z,221.602
2023-04-18T17:40:02.062Z,195.633
2023-04-18T17:45:02.036Z,133.674
2023-04-18T17:50:02.001Z,79.96000000000001
2023-04-18T17:55:02.043Z,42.546
2023-04-18T18:00:02.060Z,22.416
2023-04-18T18:05:02.023Z,31.042
2023-04-18T18:10:02.117Z,15.328000000000001
2023-04-18T18:15:02.112Z,0.105
2023-04-18T18:20:02.225Z,0.106
2023-04-18T18:25:02.233Z,0.114
2023-04-18T18:30:02.316Z,0.11800000000000001
2023-04-18T18:35:02.191Z,0
2023-04-18T18:40:02.103Z,0
2023-04-18T18:45:02.131Z,0.066
2023-04-18T18:50:02.059Z,0.158
2023-04-18T18:55:02.059Z,0.101
2023-04-18T19:00:02.182Z,0.10300000000000001
2023-04-18T19:05:02.301Z,0.11800000000000001
2023-04-18T19:10:02.149Z,0.115
2023-04-18T19:15:02.104Z,0.085
2023-04-18T19:20:02.136Z,0.078
2023-04-18T19:25:02.127Z,0.114
2023-04-18T19:30:02.231Z,0.145
2023-04-18T19:35:02.100Z,0.139
2023-04-18T19:40:02.249Z,0.099
2023-04-18T19:45:02.273Z,0.09
2023-04-18T19:50:02.356Z,0.045
2023-04-18T19:55:02.303Z,0.108
2023-04-18T20:00:02.180Z,0.112
2023-04-18T20:05:02.336Z,0.12
2023-04-18T20:10:02.178Z,0.126
2023-04-18T20:15:02.200Z,0.04
2023-04-18T20:20:02.158Z,0
2023-04-18T20:25:02.293Z,0
2023-04-18T20:30:02.185Z,0
2023-04-18T20:35:02.271Z,0.005
2023-04-18T20:40:02.223Z,0.136
2023-04-18T20:45:02.229Z,0.136
2023-04-18T20:50:02.308Z,0.139
2023-04-18T20:55:02.171Z,0.139
2023-04-18T21:00:02.232Z,0.186
2023-04-18T21:05:02.372Z,0.187
2023-04-18T21:10:02.360Z,0.176
2023-04-18T21:15:02.392Z,0.133
2023-04-18T21:20:02.300Z,0.124
2023-04-18T21:25:02.351Z,0.125
2023-04-18T21:30:03.368Z,0.124
2023-04-18T21:35:02.265Z,0.121
2023-04-18T21:40:02.276Z,0.121
2023-04-18T21:45:02.248Z,0.162
2023-04-18T21:50:02.201Z,0.17
2023-04-18T21:55:02.248Z,0.187
2023-04-18T22:00:02.325Z,0.131
2023-04-18T22:05:02.333Z,0.109
2023-04-18T22:10:02.317Z,0.107
2023-04-18T22:15:02.292Z,0
2023-04-18T22:20:02.330Z,0
2023-04-18T22:25:02.320Z,0
2023-04-18T22:30:02.274Z,0
2023-04-18T22:35:02.452Z,0.014
2023-04-18T22:40:02.421Z,0.17400000000000002
2023-04-18T22:45:02.467Z,0.147
2023-04-18T22:50:02.374Z,0.128
2023-04-18T22:55:02.371Z,0.128
2023-04-18T23:00:02.276Z,0.132
2023-04-18T23:05:02.376Z,0.13
2023-04-18T23:10:02.291Z,0.126
2023-04-18T23:15:02.345Z,0.137
2023-04-18T23:20:02.317Z,0.165
2023-04-18T23:25:02.343Z,0.163
2023-04-18T23:30:02.279Z,0.14100000000000001
2023-04-18T23:35:02.338Z,0.112
2023-04-18T23:40:02.354Z,0.124
2023-04-18T23:45:02.353Z,0.128
2023-04-18T23:50:02.360Z,0.124
2023-04-18T23:55:02.370Z,0.129
